createdAt,value
2017-12-06T00:09:19.167Z,1016.11
2017-12-06T00:14:54.556Z,1016.14
2017-12-06T00:15:56.267Z,1016.09
2017-12-06T00:19:31.340Z,1016.13
2017-12-06T00:20:20.505Z,1016.14
2017-12-06T00:21:16.143Z,1016.09
2017-12-06T00:22:15.926Z,1016.13
2017-12-06T00:23:17.427Z,1016.08
2017-12-06T00:26:57.325Z,1016.06
2017-12-06T01:00:03.151Z,1015.96
2017-12-06T01:01:01.169Z,1016.07
2017-12-06T01:10:39.907Z,1015.95
2017-12-06T01:11:34.309Z,1016.07
2017-12-06T01:12:34.992Z,1015.98
2017-12-06T01:13:35.860Z,1016.06
2017-12-06T01:14:33.390Z,1015.99
2017-12-06T01:15:33.428Z,1016.07
2017-12-06T01:16:33.362Z,1016.07
2017-12-06T01:17:37.902Z,1016.12
2017-12-06T01:18:34.003Z,1016.07
2017-12-06T01:19:33.253Z,1016.12
2017-12-06T01:20:33.223Z,1016.10
2017-12-06T01:21:33.339Z,1016.09
2017-12-06T01:22:33.290Z,1016.08
2017-12-06T01:29:33.332Z,1016.02
2017-12-06T01:53:09.354Z,1015.87
2017-12-06T01:54:12.532Z,1015.91
2017-12-06T01:55:09.773Z,1015.81
2017-12-06T01:56:12.427Z,1015.84
2017-12-06T02:12:48.820Z,1015.89
2017-12-06T02:13:48.829Z,1015.89
2017-12-06T02:14:48.982Z,1015.83
2017-12-06T03:12:32.274Z,1015.43
2017-12-06T03:13:17.993Z,1015.29
2017-12-06T03:39:26.985Z,1015.15
2017-12-06T03:54:38.781Z,1015.07
2017-12-06T03:55:01.523Z,1015.06
2017-12-06T04:09:44.148Z,1014.93
2017-12-06T04:21:31.624Z,1014.88
2017-12-06T04:22:31.768Z,1014.91
2017-12-06T04:39:00.589Z,1014.69
2017-12-06T04:40:00.028Z,1014.72
2017-12-06T04:41:00.002Z,1014.77
2017-12-06T04:42:00.031Z,1014.77
2017-12-06T04:42:59.925Z,1014.72
2017-12-06T04:43:59.874Z,1014.67
2017-12-06T04:44:59.929Z,1014.72
2017-12-06T04:45:59.862Z,1014.64
2017-12-06T04:46:59.852Z,1014.71
2017-12-06T04:47:59.881Z,1014.64
2017-12-06T04:48:59.808Z,1014.65
2017-12-06T04:49:59.799Z,1014.61
2017-12-06T04:50:59.781Z,1014.67
2017-12-06T04:51:59.758Z,1014.57
2017-12-06T04:53:00.658Z,1014.57
2017-12-06T04:53:59.757Z,1014.62
2017-12-06T04:54:59.718Z,1014.58
2017-12-06T04:55:59.807Z,1014.59
2017-12-06T04:56:59.691Z,1014.52
2017-12-06T04:57:59.692Z,1014.55
2017-12-06T04:59:00.563Z,1014.53
2017-12-06T04:59:59.643Z,1014.61
2017-12-06T05:00:59.625Z,1014.53
2017-12-06T05:01:59.667Z,1014.55
2017-12-06T05:02:59.623Z,1014.60
2017-12-06T05:03:59.587Z,1014.53
2017-12-06T05:04:59.575Z,1014.58
2017-12-06T05:05:59.573Z,1014.60
2017-12-06T05:06:59.539Z,1014.54
2017-12-06T05:07:59.577Z,1014.59
2017-12-06T05:08:59.494Z,1014.49
2017-12-06T05:09:59.483Z,1014.50
2017-12-06T05:10:59.538Z,1014.50
2017-12-06T05:11:59.465Z,1014.55
2017-12-06T05:12:59.512Z,1014.52
2017-12-06T05:13:59.435Z,1014.46
2017-12-06T05:14:59.448Z,1014.43
2017-12-06T05:15:59.404Z,1014.48
2017-12-06T05:16:59.430Z,1014.48
2017-12-06T05:17:59.369Z,1014.50
2017-12-06T05:18:59.377Z,1014.49
2017-12-06T05:19:59.338Z,1014.52
2017-12-06T05:20:59.314Z,1014.57
2017-12-06T05:21:59.320Z,1014.54
2017-12-06T05:22:59.374Z,1014.58
2017-12-06T05:23:59.271Z,1014.59
2017-12-06T05:24:59.298Z,1014.50
2017-12-06T05:25:59.251Z,1014.54
2017-12-06T05:26:59.262Z,1014.55
2017-12-06T05:27:59.234Z,1014.43
2017-12-06T05:28:59.222Z,1014.47
2017-12-06T05:29:59.184Z,1014.45
2017-12-06T05:30:59.238Z,1014.53
2017-12-06T05:31:59.151Z,1014.54
2017-12-06T05:32:59.151Z,1014.54
2017-12-06T05:33:59.135Z,1014.51
2017-12-06T05:34:59.110Z,1014.59
2017-12-06T05:35:59.209Z,1014.52
2017-12-06T05:36:59.137Z,1014.55
2017-12-06T05:37:59.086Z,1014.58
2017-12-06T05:38:59.058Z,1014.56
2017-12-06T05:39:59.141Z,1014.49
2017-12-06T05:40:59.035Z,1014.39
2017-12-06T05:41:59.026Z,1014.53
2017-12-06T05:42:59.108Z,1014.55
2017-12-06T05:43:58.994Z,1014.55
2017-12-06T05:44:58.960Z,1014.46
2017-12-06T05:45:58.951Z,1014.50
2017-12-06T05:46:58.948Z,1014.46
2017-12-06T05:47:58.928Z,1014.45
2017-12-06T05:48:58.946Z,1014.51
2017-12-06T05:49:58.899Z,1014.49
2017-12-06T05:50:58.899Z,1014.37
2017-12-06T05:51:58.899Z,1014.37
2017-12-06T05:52:58.856Z,1014.47
2017-12-06T05:53:58.825Z,1014.45
2017-12-06T05:54:58.857Z,1014.43
2017-12-06T05:55:58.798Z,1014.55
2017-12-06T05:56:58.856Z,1014.54
2017-12-06T05:57:58.762Z,1014.49
2017-12-06T05:58:58.759Z,1014.60
2017-12-06T05:59:58.734Z,1014.55
2017-12-06T06:00:58.726Z,1014.49
2017-12-06T06:01:58.710Z,1014.48
2017-12-06T06:02:58.741Z,1014.43
2017-12-06T06:03:58.685Z,1014.49
2017-12-06T06:04:58.658Z,1014.35
2017-12-06T06:05:58.660Z,1014.49
2017-12-06T06:06:58.654Z,1014.44
2017-12-06T06:07:58.663Z,1014.50
2017-12-06T06:08:58.617Z,1014.60
2017-12-06T06:09:58.595Z,1014.55
2017-12-06T06:10:58.599Z,1014.56
2017-12-06T06:11:58.580Z,1014.57
2017-12-06T06:12:58.625Z,1014.58
2017-12-06T06:13:58.539Z,1014.59
2017-12-06T06:14:58.513Z,1014.55
2017-12-06T06:15:58.510Z,1014.53
2017-12-06T06:16:58.523Z,1014.53
2017-12-06T06:17:58.483Z,1014.55
2017-12-06T06:18:58.484Z,1014.49
2017-12-06T06:19:58.446Z,1014.46
2017-12-06T06:20:58.435Z,1014.52
2017-12-06T06:21:58.465Z,1014.52
2017-12-06T06:22:58.408Z,1014.47
2017-12-06T06:23:58.390Z,1014.44
2017-12-06T06:24:58.365Z,1014.42
2017-12-06T06:25:58.353Z,1014.50
2017-12-06T06:26:58.350Z,1014.36
2017-12-06T06:27:58.345Z,1014.36
2017-12-06T06:28:59.008Z,1014.23
2017-12-06T06:29:58.308Z,1014.35
2017-12-06T06:30:58.278Z,1014.27
2017-12-06T06:31:58.279Z,1014.25
2017-12-06T06:32:58.356Z,1014.29
2017-12-06T06:33:58.233Z,1014.42
2017-12-06T06:34:58.233Z,1014.34
2017-12-06T06:35:58.213Z,1014.30
2017-12-06T06:36:58.203Z,1014.31
2017-12-06T06:37:58.196Z,1014.36
2017-12-06T06:38:58.187Z,1014.33
2017-12-06T06:39:58.145Z,1014.24
2017-12-06T06:40:58.146Z,1014.27
2017-12-06T06:41:58.124Z,1014.26
2017-12-06T06:42:59.029Z,1014.33
2017-12-06T06:43:58.087Z,1014.26
2017-12-06T06:44:58.088Z,1014.25
2017-12-06T06:45:58.066Z,1014.31
2017-12-06T06:46:58.047Z,1014.25
2017-12-06T06:47:58.043Z,1014.26
2017-12-06T06:48:58.041Z,1014.30
2017-12-06T06:49:58.009Z,1014.34
2017-12-06T06:50:57.981Z,1014.35
2017-12-06T06:51:57.959Z,1014.31
2017-12-06T06:52:57.969Z,1014.30
2017-12-06T06:53:57.940Z,1014.29
2017-12-06T06:54:57.973Z,1014.29
2017-12-06T06:55:57.905Z,1014.30
2017-12-06T06:56:57.897Z,1014.38
2017-12-06T06:57:57.875Z,1014.34
2017-12-06T06:58:57.937Z,1014.36
2017-12-06T06:59:57.838Z,1014.35
2017-12-06T07:00:57.843Z,1014.41
2017-12-06T07:01:57.829Z,1014.36
2017-12-06T07:02:57.832Z,1014.37
2017-12-06T07:03:57.793Z,1014.42
2017-12-06T07:04:57.842Z,1014.41
2017-12-06T07:05:57.757Z,1014.36
2017-12-06T07:06:57.750Z,1014.35
2017-12-06T07:07:57.724Z,1014.26
2017-12-06T07:08:57.706Z,1014.52
2017-12-06T07:09:57.733Z,1014.31
2017-12-06T07:10:57.755Z,1014.34
2017-12-06T07:11:57.663Z,1014.35
2017-12-06T07:12:57.672Z,1014.38
2017-12-06T07:13:57.658Z,1014.41
2017-12-06T07:14:57.623Z,1014.35
2017-12-06T07:15:57.610Z,1014.43
2017-12-06T07:16:57.622Z,1014.39
2017-12-06T07:17:57.654Z,1014.51
2017-12-06T07:18:58.512Z,1014.31
2017-12-06T07:19:57.559Z,1014.49
2017-12-06T07:20:57.543Z,1014.40
2017-12-06T07:21:57.526Z,1014.41
2017-12-06T07:22:57.565Z,1014.43
2017-12-06T07:23:57.504Z,1014.34
2017-12-06T07:24:57.503Z,1014.42
2017-12-06T07:25:57.455Z,1014.45
2017-12-06T07:26:57.467Z,1014.43
2017-12-06T07:27:57.454Z,1014.42
2017-12-06T07:28:57.461Z,1014.46
2017-12-06T07:29:57.405Z,1014.47
2017-12-06T07:30:57.400Z,1014.45
2017-12-06T07:31:57.377Z,1014.42
2017-12-06T07:32:57.362Z,1014.45
2017-12-06T07:33:57.353Z,1014.42
2017-12-06T07:34:57.406Z,1014.36
2017-12-06T07:35:58.017Z,1014.36
2017-12-06T07:36:57.339Z,1014.40
2017-12-06T07:37:57.290Z,1014.43
2017-12-06T07:38:57.278Z,1014.36
2017-12-06T07:39:57.258Z,1014.41
2017-12-06T07:40:57.278Z,1014.44
2017-12-06T07:41:57.233Z,1014.36
2017-12-06T07:42:57.204Z,1014.35
2017-12-06T07:43:57.250Z,1014.32
2017-12-06T07:44:57.185Z,1014.31
2017-12-06T07:45:57.229Z,1014.30
2017-12-06T07:46:57.145Z,1014.34
2017-12-06T07:47:57.130Z,1014.33
2017-12-06T07:48:57.139Z,1014.26
2017-12-06T07:49:57.110Z,1014.29
2017-12-06T07:50:57.105Z,1014.30
2017-12-06T07:51:57.126Z,1014.35
2017-12-06T07:52:57.058Z,1014.31
2017-12-06T07:53:57.063Z,1014.32
2017-12-06T07:54:57.039Z,1014.30
2017-12-06T07:55:57.142Z,1014.34
2017-12-06T07:56:57.965Z,1014.38
2017-12-06T07:57:57.260Z,1014.34
2017-12-06T07:58:58.230Z,1014.35
2017-12-06T07:59:57.655Z,1014.31
2017-12-06T08:00:57.252Z,1014.25
2017-12-06T08:01:57.082Z,1014.35
2017-12-06T08:02:57.667Z,1014.32
2017-12-06T08:03:57.266Z,1014.34
2017-12-06T08:04:57.094Z,1014.35
2017-12-06T08:05:57.135Z,1014.28
2017-12-06T08:06:57.161Z,1014.33
2017-12-06T08:07:57.810Z,1014.26
2017-12-06T08:08:57.117Z,1014.25
2017-12-06T08:09:57.006Z,1014.25
2017-12-06T08:10:56.938Z,1014.39
2017-12-06T08:11:57.602Z,1014.31
2017-12-06T08:12:58.529Z,1014.29
2017-12-06T08:13:56.978Z,1014.35
2017-12-06T08:14:56.851Z,1014.25
2017-12-06T08:15:56.855Z,1014.28
2017-12-06T08:16:56.833Z,1014.21
2017-12-06T08:17:56.836Z,1014.29
2017-12-06T08:18:57.074Z,1014.34
2017-12-06T08:19:57.151Z,1014.32
2017-12-06T08:20:56.856Z,1014.36
2017-12-06T08:21:56.751Z,1014.37
2017-12-06T08:22:56.762Z,1014.35
2017-12-06T08:23:56.708Z,1014.28
2017-12-06T08:24:56.700Z,1014.28
2017-12-06T08:25:56.596Z,1014.32
2017-12-06T08:26:56.589Z,1014.26
2017-12-06T08:27:56.559Z,1014.31
2017-12-06T08:28:56.531Z,1014.28
2017-12-06T08:29:56.586Z,1014.34
2017-12-06T08:30:56.952Z,1014.27
2017-12-06T08:31:56.498Z,1014.18
2017-12-06T08:32:56.491Z,1014.29
2017-12-06T08:33:56.452Z,1014.28
2017-12-06T08:34:56.466Z,1014.27
2017-12-06T08:35:56.455Z,1014.28
2017-12-06T08:36:56.430Z,1014.30
2017-12-06T08:37:57.059Z,1014.35
2017-12-06T08:38:56.405Z,1014.37
2017-12-06T08:39:56.376Z,1014.34
2017-12-06T08:40:56.368Z,1014.46
2017-12-06T08:41:56.352Z,1014.34
2017-12-06T08:42:56.458Z,1014.40
2017-12-06T08:43:56.315Z,1014.43
2017-12-06T08:44:56.302Z,1014.41
2017-12-06T08:45:56.339Z,1014.47
2017-12-06T08:46:56.279Z,1014.45
2017-12-06T08:47:57.040Z,1014.37
2017-12-06T08:48:56.572Z,1014.47
2017-12-06T08:49:56.211Z,1014.41
2017-12-06T08:50:56.214Z,1014.31
2017-12-06T08:51:56.191Z,1014.42
2017-12-06T08:52:56.202Z,1014.46
2017-12-06T08:53:56.176Z,1014.38
2017-12-06T08:54:56.204Z,1014.47
2017-12-06T08:55:56.149Z,1014.40
2017-12-06T08:56:56.144Z,1014.40
2017-12-06T08:57:56.110Z,1014.34
2017-12-06T08:58:56.101Z,1014.36
2017-12-06T08:59:56.083Z,1014.35
2017-12-06T09:00:56.132Z,1014.37
2017-12-06T09:01:56.063Z,1014.36
2017-12-06T09:02:56.028Z,1014.38
2017-12-06T09:03:56.015Z,1014.42
2017-12-06T09:04:56.003Z,1014.47
2017-12-06T09:05:55.997Z,1014.44
2017-12-06T09:06:56.047Z,1014.45
2017-12-06T09:07:55.965Z,1014.45
2017-12-06T09:08:55.957Z,1014.47
2017-12-06T09:09:56.044Z,1014.45
2017-12-06T09:10:56.249Z,1014.42
2017-12-06T09:11:55.910Z,1014.46
2017-12-06T09:12:55.927Z,1014.48
2017-12-06T09:13:55.878Z,1014.44
2017-12-06T09:14:55.865Z,1014.47
2017-12-06T09:15:55.922Z,1014.48
2017-12-06T09:16:55.839Z,1014.48
2017-12-06T09:17:55.805Z,1014.47
2017-12-06T09:18:55.798Z,1014.53
2017-12-06T09:19:57.624Z,1014.46
2017-12-06T09:20:55.777Z,1014.47
2017-12-06T09:21:55.812Z,1014.44
2017-12-06T09:22:55.741Z,1014.48
2017-12-06T09:23:55.745Z,1014.49
2017-12-06T09:24:55.742Z,1014.45
2017-12-06T09:25:56.558Z,1014.44
2017-12-06T09:26:55.690Z,1014.45
2017-12-06T09:27:55.733Z,1014.41
2017-12-06T09:28:55.645Z,1014.56
2017-12-06T09:29:55.722Z,1014.45
2017-12-06T09:30:55.699Z,1014.49
2017-12-06T09:31:55.614Z,1014.46
2017-12-06T09:32:55.590Z,1014.42
2017-12-06T09:33:55.639Z,1014.47
2017-12-06T09:34:56.593Z,1014.43
2017-12-06T09:35:55.565Z,1014.43
2017-12-06T09:36:55.545Z,1014.48
2017-12-06T09:37:55.572Z,1014.43
2017-12-06T09:38:55.523Z,1014.56
2017-12-06T09:39:55.541Z,1014.46
2017-12-06T09:40:55.491Z,1014.43
2017-12-06T09:41:55.467Z,1014.35
2017-12-06T09:42:55.461Z,1014.47
2017-12-06T09:43:55.508Z,1014.57
2017-12-06T09:44:55.439Z,1014.44
2017-12-06T09:45:55.411Z,1014.43
2017-12-06T09:46:55.419Z,1014.42
2017-12-06T09:47:55.369Z,1014.34
2017-12-06T09:48:55.395Z,1014.40
2017-12-06T09:49:55.332Z,1014.52
2017-12-06T09:50:55.327Z,1014.49
2017-12-06T09:51:55.340Z,1014.37
2017-12-06T09:52:56.068Z,1014.39
2017-12-06T09:53:55.345Z,1014.54
2017-12-06T09:54:55.307Z,1014.50
2017-12-06T09:55:55.258Z,1014.49
2017-12-06T09:56:55.269Z,1014.43
2017-12-06T09:57:55.246Z,1014.53
2017-12-06T09:58:55.261Z,1014.49
2017-12-06T09:59:55.232Z,1014.54
2017-12-06T10:00:55.199Z,1014.53
2017-12-06T10:01:55.168Z,1014.35
2017-12-06T10:02:55.162Z,1014.51
2017-12-06T10:03:55.174Z,1014.57
2017-12-06T10:04:55.134Z,1014.51
2017-12-06T10:05:55.147Z,1014.51
2017-12-06T10:06:55.107Z,1014.51
2017-12-06T10:07:55.152Z,1014.50
2017-12-06T10:08:55.170Z,1014.40
2017-12-06T10:09:55.055Z,1014.43
2017-12-06T10:10:55.038Z,1014.59
2017-12-06T10:11:55.016Z,1014.48
2017-12-06T10:12:55.002Z,1014.57
2017-12-06T10:13:54.993Z,1014.53
2017-12-06T10:14:55.021Z,1014.44
2017-12-06T10:15:55.025Z,1014.44
2017-12-06T10:16:54.955Z,1014.46
2017-12-06T10:17:54.952Z,1014.36
2017-12-06T10:18:55.548Z,1014.41
2017-12-06T10:19:54.960Z,1014.37
2017-12-06T10:20:54.895Z,1014.38
2017-12-06T10:21:54.941Z,1014.35
2017-12-06T10:22:54.865Z,1014.36
2017-12-06T10:23:54.868Z,1014.38
2017-12-06T10:24:54.847Z,1014.36
2017-12-06T10:25:54.863Z,1014.33
2017-12-06T10:26:54.819Z,1014.47
2017-12-06T10:27:54.894Z,1014.39
2017-12-06T10:28:54.842Z,1014.39
2017-12-06T10:29:54.794Z,1014.34
2017-12-06T10:30:54.812Z,1014.33
2017-12-06T10:31:54.734Z,1014.42
2017-12-06T10:32:54.733Z,1014.48
2017-12-06T10:33:54.766Z,1014.40
2017-12-06T10:34:54.679Z,1014.46
2017-12-06T10:35:54.676Z,1014.42
2017-12-06T10:36:54.661Z,1014.44
2017-12-06T10:37:54.670Z,1014.41
2017-12-06T10:38:54.632Z,1014.48
2017-12-06T10:39:54.692Z,1014.35
2017-12-06T10:40:54.612Z,1014.40
2017-12-06T10:41:54.599Z,1014.41
2017-12-06T10:42:54.587Z,1014.45
2017-12-06T10:43:54.565Z,1014.46
2017-12-06T10:44:54.538Z,1014.45
2017-12-06T10:45:54.605Z,1014.37
2017-12-06T10:46:54.520Z,1014.35
2017-12-06T10:47:54.515Z,1014.25
2017-12-06T10:48:54.505Z,1014.28
2017-12-06T10:49:54.469Z,1014.27
2017-12-06T10:50:54.460Z,1014.33
2017-12-06T10:51:54.625Z,1014.38
2017-12-06T10:52:56.468Z,1014.34
2017-12-06T10:53:54.519Z,1014.33
2017-12-06T10:54:54.507Z,1014.10
2017-12-06T10:55:54.907Z,1014.30
2017-12-06T10:56:54.498Z,1014.29
2017-12-06T10:57:54.558Z,1014.24
2017-12-06T10:58:54.475Z,1014.25
2017-12-06T10:59:54.560Z,1014.24
2017-12-06T11:00:54.845Z,1014.28
2017-12-06T11:01:54.505Z,1014.18
2017-12-06T11:02:54.539Z,1014.14
2017-12-06T11:03:54.463Z,1014.17
2017-12-06T11:04:54.680Z,1014.19
2017-12-06T11:05:54.345Z,1014.18
2017-12-06T11:06:54.418Z,1014.19
2017-12-06T11:07:54.408Z,1014.14
2017-12-06T11:08:54.284Z,1014.15
2017-12-06T11:09:54.516Z,1014.18
2017-12-06T11:10:54.433Z,1014.19
2017-12-06T11:11:54.405Z,1014.24
2017-12-06T11:12:54.289Z,1014.15
2017-12-06T11:13:54.381Z,1014.23
2017-12-06T11:14:54.372Z,1014.21
2017-12-06T11:15:54.286Z,1014.20
2017-12-06T11:16:54.340Z,1014.16
2017-12-06T11:17:54.209Z,1014.25
2017-12-06T11:18:54.517Z,1014.20
2017-12-06T11:19:54.261Z,1014.35
2017-12-06T11:20:54.392Z,1014.15
2017-12-06T11:21:54.664Z,1014.15
2017-12-06T11:22:54.100Z,1014.24
2017-12-06T11:23:54.277Z,1014.29
2017-12-06T11:24:54.140Z,1014.29
2017-12-06T11:25:54.116Z,1014.21
2017-12-06T11:26:53.930Z,1014.32
2017-12-06T11:27:53.931Z,1014.29
2017-12-06T11:28:53.944Z,1014.21
2017-12-06T11:29:53.914Z,1014.25
2017-12-06T11:30:53.947Z,1014.24
2017-12-06T11:31:53.884Z,1014.22
2017-12-06T11:32:53.881Z,1014.24
2017-12-06T11:33:53.905Z,1014.23
2017-12-06T11:34:53.835Z,1014.21
2017-12-06T11:35:53.818Z,1014.17
2017-12-06T11:36:53.866Z,1014.07
2017-12-06T11:37:53.786Z,1014.11
2017-12-06T11:38:53.898Z,1014.24
2017-12-06T11:39:53.984Z,1014.13
2017-12-06T11:40:53.790Z,1014.19
2017-12-06T11:53:42.208Z,1014.23
2017-12-06T11:54:40.888Z,1014.20
2017-12-06T11:55:40.884Z,1014.18
2017-12-06T11:56:40.723Z,1014.20
2017-12-06T11:57:41.164Z,1014.12
2017-12-06T11:58:40.641Z,1014.25
2017-12-06T11:59:40.906Z,1014.13
2017-12-06T12:00:41.165Z,1014.19
2017-12-06T12:01:41.141Z,1014.22
2017-12-06T12:02:41.026Z,1014.17
2017-12-06T12:03:40.762Z,1014.18
2017-12-06T12:04:40.928Z,1014.21
2017-12-06T12:05:40.555Z,1014.20
2017-12-06T12:06:40.541Z,1014.17
2017-12-06T12:07:40.616Z,1014.14
2017-12-06T12:08:40.517Z,1014.12
2017-12-06T12:09:40.582Z,1014.15
2017-12-06T12:10:40.619Z,1014.11
2017-12-06T12:11:40.476Z,1014.12
2017-12-06T12:12:40.498Z,1014.03
2017-12-06T12:13:40.640Z,1014.12
2017-12-06T12:14:40.471Z,1014.12
2017-12-06T12:15:40.418Z,1014.08
2017-12-06T12:16:40.408Z,1014.08
2017-12-06T12:17:40.511Z,1014.14
2017-12-06T12:18:40.468Z,1014.09
2017-12-06T12:19:40.312Z,1014.08
2017-12-06T12:20:40.373Z,1014.26
2017-12-06T12:21:40.344Z,1014.06
2017-12-06T12:22:40.548Z,1014.12
2017-12-06T12:23:40.399Z,1014.03
2017-12-06T12:24:40.361Z,1014.01
2017-12-06T12:25:40.261Z,1013.92
2017-12-06T12:26:40.288Z,1014.05
2017-12-06T12:27:40.280Z,1014.02
2017-12-06T12:28:40.254Z,1014.05
2017-12-06T12:29:40.368Z,1014.02
2017-12-06T12:30:40.473Z,1013.98
2017-12-06T12:31:40.313Z,1014.06
2017-12-06T12:32:40.267Z,1014.07
2017-12-06T12:33:40.112Z,1013.95
2017-12-06T12:34:40.651Z,1014.00
2017-12-06T12:35:40.087Z,1014.02
2017-12-06T12:36:40.036Z,1014.00
2017-12-06T12:37:40.050Z,1014.04
2017-12-06T12:38:40.014Z,1013.94
2017-12-06T12:39:39.996Z,1014.03
2017-12-06T12:40:40.031Z,1014.00
2017-12-06T12:41:40.659Z,1014.02
2017-12-06T12:42:39.970Z,1013.99
2017-12-06T12:43:39.938Z,1014.00
2017-12-06T12:44:39.937Z,1013.96
2017-12-06T12:45:39.919Z,1013.99
2017-12-06T12:46:39.960Z,1013.94
2017-12-06T12:47:39.880Z,1013.95
2017-12-06T12:48:39.864Z,1013.87
2017-12-06T12:49:39.852Z,1013.93
2017-12-06T12:50:39.892Z,1013.94
2017-12-06T12:51:39.814Z,1013.88
2017-12-06T12:52:39.875Z,1013.89
2017-12-06T12:53:39.799Z,1013.90
2017-12-06T12:54:39.785Z,1013.83
2017-12-06T12:55:39.803Z,1013.86
2017-12-06T12:56:39.772Z,1013.90
2017-12-06T12:57:39.754Z,1013.77
2017-12-06T12:58:39.780Z,1013.92
2017-12-06T12:59:39.701Z,1013.87
2017-12-06T13:00:39.709Z,1013.86
2017-12-06T13:01:39.710Z,1013.92
2017-12-06T13:02:41.803Z,1013.83
2017-12-06T13:03:39.649Z,1013.83
2017-12-06T13:04:39.694Z,1013.75
2017-12-06T13:05:40.190Z,1013.79
2017-12-06T13:06:39.598Z,1013.85
2017-12-06T13:07:39.592Z,1013.88
2017-12-06T13:08:39.586Z,1013.80
2017-12-06T13:09:39.618Z,1013.73
2017-12-06T13:10:40.406Z,1013.76
2017-12-06T13:11:39.546Z,1013.73
2017-12-06T13:12:39.639Z,1013.76
2017-12-06T13:13:39.534Z,1013.71
2017-12-06T13:15:22.869Z,1013.73
2017-12-06T13:15:39.520Z,1013.61
2017-12-06T13:16:40.198Z,1013.65
2017-12-06T13:21:28.290Z,1013.57
2017-12-06T13:22:41.994Z,1013.60
2017-12-06T13:23:28.911Z,1013.54
2017-12-06T13:28:17.596Z,1013.57
2017-12-06T13:29:19.063Z,1013.55
2017-12-06T13:30:20.171Z,1013.59
2017-12-06T13:31:18.218Z,1013.52
2017-12-06T13:32:19.510Z,1013.50
2017-12-06T13:35:52.951Z,1013.49
2017-12-06T13:36:50.146Z,1013.42
2017-12-06T13:37:49.784Z,1013.41
2017-12-06T13:38:49.728Z,1013.38
2017-12-06T13:39:49.800Z,1013.39
2017-12-06T13:40:49.828Z,1013.37
2017-12-06T13:41:51.317Z,1013.46
2017-12-06T13:42:49.675Z,1013.38
2017-12-06T13:43:49.715Z,1013.42
2017-12-06T13:44:49.591Z,1013.43
2017-12-06T13:45:49.612Z,1013.49
2017-12-06T13:46:49.805Z,1013.41
2017-12-06T13:47:51.430Z,1013.49
2017-12-06T13:48:49.544Z,1013.47
2017-12-06T13:49:49.729Z,1013.38
2017-12-06T13:50:49.580Z,1013.40
2017-12-06T13:51:49.492Z,1013.41
2017-12-06T13:52:49.580Z,1013.41
2017-12-06T13:53:49.464Z,1013.38
2017-12-06T13:54:49.469Z,1013.42
2017-12-06T13:55:49.727Z,1013.31
2017-12-06T13:56:49.414Z,1013.35
2017-12-06T13:57:49.386Z,1013.35
2017-12-06T13:58:49.472Z,1013.31
2017-12-06T13:59:49.367Z,1013.37
2017-12-06T14:00:49.363Z,1013.43
2017-12-06T14:01:49.459Z,1013.34
2017-12-06T14:02:49.464Z,1013.39
2017-12-06T14:03:49.879Z,1013.37
2017-12-06T14:04:49.289Z,1013.39
2017-12-06T14:05:49.279Z,1013.35
2017-12-06T14:06:49.276Z,1013.33
2017-12-06T14:07:49.594Z,1013.28
2017-12-06T14:08:49.305Z,1013.29
2017-12-06T14:09:49.192Z,1013.34
2017-12-06T14:10:49.223Z,1013.38
2017-12-06T14:11:49.193Z,1013.36
2017-12-06T14:12:49.140Z,1013.37
2017-12-06T14:13:49.297Z,1013.35
2017-12-06T14:14:49.097Z,1013.37
2017-12-06T14:15:49.159Z,1013.36
2017-12-06T14:16:49.162Z,1013.37
2017-12-06T14:17:49.101Z,1013.33
2017-12-06T14:18:49.143Z,1013.34
2017-12-06T14:19:49.240Z,1013.30
2017-12-06T14:20:49.824Z,1013.33
2017-12-06T14:21:49.689Z,1013.35
2017-12-06T14:22:49.024Z,1013.32
2017-12-06T14:23:49.166Z,1013.29
2017-12-06T14:24:49.468Z,1013.22
2017-12-06T14:25:49.603Z,1013.32
2017-12-06T14:26:49.400Z,1013.25
2017-12-06T14:27:49.079Z,1013.25
2017-12-06T14:28:49.235Z,1013.25
2017-12-06T14:29:49.011Z,1013.26
2017-12-06T14:30:49.006Z,1013.29
2017-12-06T14:31:48.996Z,1013.23
2017-12-06T14:32:48.893Z,1013.19
2017-12-06T14:33:49.126Z,1013.20
2017-12-06T14:34:49.094Z,1013.13
2017-12-06T14:35:50.122Z,1013.19
2017-12-06T14:36:50.050Z,1013.23
2017-12-06T14:37:49.168Z,1013.26
2017-12-06T14:38:48.936Z,1013.20
2017-12-06T14:39:49.330Z,1013.24
2017-12-06T14:40:48.935Z,1013.26
2017-12-06T14:41:50.311Z,1013.22
2017-12-06T14:42:48.817Z,1013.25
2017-12-06T14:43:49.994Z,1013.26
2017-12-06T14:44:48.868Z,1013.24
2017-12-06T14:45:48.736Z,1013.23
2017-12-06T14:46:48.830Z,1013.18
2017-12-06T14:47:48.853Z,1013.20
2017-12-06T14:48:48.678Z,1013.19
2017-12-06T14:49:48.788Z,1013.16
2017-12-06T14:50:48.828Z,1013.21
2017-12-06T14:51:48.711Z,1013.17
2017-12-06T14:52:48.863Z,1013.17
2017-12-06T14:53:48.538Z,1013.20
2017-12-06T14:54:48.668Z,1013.17
2017-12-06T14:55:48.655Z,1013.13
2017-12-06T14:56:48.815Z,1013.11
2017-12-06T14:57:48.647Z,1013.11
2017-12-06T14:58:48.442Z,1013.13
2017-12-06T14:59:48.606Z,1013.11
2017-12-06T15:00:48.529Z,1013.11
2017-12-06T15:01:48.429Z,1013.14
2017-12-06T15:02:48.494Z,1013.14
2017-12-06T15:03:48.403Z,1013.16
2017-12-06T15:04:48.415Z,1013.22
2017-12-06T15:05:48.508Z,1013.21
2017-12-06T15:06:48.396Z,1013.17
2017-12-06T15:07:48.843Z,1013.23
2017-12-06T15:08:48.445Z,1013.16
2017-12-06T15:09:48.840Z,1013.19
2017-12-06T15:10:48.512Z,1013.18
2017-12-06T15:11:48.454Z,1013.15
2017-12-06T15:12:48.696Z,1013.20
2017-12-06T15:13:48.326Z,1013.19
2017-12-06T15:14:48.274Z,1013.20
2017-12-06T15:15:48.885Z,1013.20
2017-12-06T15:16:48.355Z,1013.17
2017-12-06T15:17:48.380Z,1013.19
2017-12-06T15:18:48.356Z,1013.17
2017-12-06T15:19:48.242Z,1013.09
2017-12-06T15:20:48.268Z,1013.20
2017-12-06T15:21:48.385Z,1013.16
2017-12-06T15:22:48.176Z,1013.15
2017-12-06T15:23:48.121Z,1013.14
2017-12-06T15:24:48.101Z,1013.19
2017-12-06T15:25:48.165Z,1013.16
2017-12-06T15:26:48.153Z,1013.18
2017-12-06T15:27:48.166Z,1013.12
2017-12-06T15:28:48.241Z,1013.14
2017-12-06T15:29:48.034Z,1013.18
2017-12-06T15:30:48.285Z,1013.17
2017-12-06T15:31:48.148Z,1013.16
2017-12-06T15:32:47.998Z,1013.19
2017-12-06T15:33:48.053Z,1013.19
2017-12-06T15:34:48.113Z,1013.16
2017-12-06T15:35:48.142Z,1013.18
2017-12-06T15:36:48.013Z,1013.12
2017-12-06T15:37:47.985Z,1013.17
2017-12-06T15:38:48.011Z,1013.18
2017-12-06T15:39:48.018Z,1013.14
2017-12-06T15:40:48.076Z,1013.17
2017-12-06T15:41:47.944Z,1013.12
2017-12-06T15:42:47.942Z,1013.08
2017-12-06T15:43:47.918Z,1013.13
2017-12-06T15:44:48.263Z,1013.15
2017-12-06T15:45:47.883Z,1013.14
2017-12-06T15:46:48.145Z,1013.09
2017-12-06T15:47:47.913Z,1013.10
2017-12-06T15:48:47.932Z,1013.14
2017-12-06T15:49:47.857Z,1013.02
2017-12-06T15:50:47.875Z,1013.02
2017-12-06T15:51:48.962Z,1013.06
2017-12-06T15:52:48.036Z,1013.04
2017-12-06T15:53:47.800Z,1013.04
2017-12-06T15:54:48.071Z,1013.04
2017-12-06T15:55:47.708Z,1013.05
2017-12-06T15:56:47.777Z,1013.02
2017-12-06T15:57:48.013Z,1012.99
2017-12-06T15:58:47.760Z,1013.02
2017-12-06T15:59:47.820Z,1012.98
2017-12-06T16:00:47.773Z,1012.99
2017-12-06T16:01:47.748Z,1012.86
2017-12-06T16:02:47.638Z,1012.97
2017-12-06T16:03:47.707Z,1012.88
2017-12-06T16:04:47.745Z,1012.94
2017-12-06T16:05:47.837Z,1012.93
2017-12-06T16:06:47.685Z,1012.89
2017-12-06T16:07:47.665Z,1012.89
2017-12-06T16:08:47.555Z,1012.86
2017-12-06T16:09:48.278Z,1012.91
2017-12-06T16:10:47.739Z,1012.87
2017-12-06T16:11:47.718Z,1012.91
2017-12-06T16:12:47.636Z,1012.93
2017-12-06T16:13:47.568Z,1012.85
2017-12-06T16:14:47.535Z,1012.82
2017-12-06T16:15:47.522Z,1012.89
2017-12-06T16:16:47.443Z,1012.86
2017-12-06T16:17:47.471Z,1012.82
2017-12-06T16:18:47.412Z,1012.86
2017-12-06T16:19:47.482Z,1012.86
2017-12-06T16:20:47.809Z,1012.86
2017-12-06T16:21:47.489Z,1012.83
2017-12-06T16:22:47.417Z,1012.84
2017-12-06T16:23:47.501Z,1012.80
2017-12-06T16:24:47.946Z,1012.82
2017-12-06T16:25:47.921Z,1012.86